sensor_id;sensor_type;location;lat;lon;timestamp;P1;durP1;ratioP1;P2;durP2;ratioP2
55268;SDS011;41131;42.990;21.954;2023-07-31T00:00:35;28.20;;;22.77;;
55268;SDS011;41131;42.990;21.954;2023-07-31T00:03:01;10.10;;;8.50;;
55268;SDS011;41131;42.990;21.954;2023-07-31T00:05:27;15.27;;;8.05;;
55268;SDS011;41131;42.990;21.954;2023-07-31T00:07:53;11.35;;;7.57;;
55268;SDS011;41131;42.990;21.954;2023-07-31T00:10:19;9.55;;;7.40;;
55268;SDS011;41131;42.990;21.954;2023-07-31T00:12:46;12.77;;;7.43;;
55268;SDS011;41131;42.990;21.954;2023-07-31T00:15:13;14.45;;;8.10;;
55268;SDS011;41131;42.990;21.954;2023-07-31T00:17:39;11.52;;;7.70;;
55268;SDS011;41131;42.990;21.954;2023-07-31T00:20:05;10.20;;;8.10;;
55268;SDS011;41131;42.990;21.954;2023-07-31T00:22:32;12.52;;;8.98;;
55268;SDS011;41131;42.990;21.954;2023-07-31T00:24:58;10.27;;;8.68;;
55268;SDS011;41131;42.990;21.954;2023-07-31T00:27:25;12.07;;;8.90;;
55268;SDS011;41131;42.990;21.954;2023-07-31T00:29:51;12.77;;;9.07;;
55268;SDS011;41131;42.990;21.954;2023-07-31T00:32:17;10.48;;;8.40;;
55268;SDS011;41131;42.990;21.954;2023-07-31T00:34:43;14.10;;;8.68;;
55268;SDS011;41131;42.990;21.954;2023-07-31T00:37:09;10.23;;;8.23;;
55268;SDS011;41131;42.990;21.954;2023-07-31T00:39:35;14.50;;;8.27;;
55268;SDS011;41131;42.990;21.954;2023-07-31T00:42:01;9.07;;;7.70;;
55268;SDS011;41131;42.990;21.954;2023-07-31T00:44:27;10.60;;;7.15;;
55268;SDS011;41131;42.990;21.954;2023-07-31T00:46:54;9.00;;;7.82;;
55268;SDS011;41131;42.990;21.954;2023-07-31T00:49:20;9.68;;;7.28;;
55268;SDS011;41131;42.990;21.954;2023-07-31T00:51:46;9.95;;;7.47;;
55268;SDS011;41131;42.990;21.954;2023-07-31T00:54:12;10.98;;;7.63;;
55268;SDS011;41131;42.990;21.954;2023-07-31T00:56:39;11.38;;;8.10;;
55268;SDS011;41131;42.990;21.954;2023-07-31T00:59:06;11.15;;;8.30;;
55268;SDS011;41131;42.990;21.954;2023-07-31T01:01:32;11.02;;;8.68;;
55268;SDS011;41131;42.990;21.954;2023-07-31T01:03:58;11.93;;;8.52;;
55268;SDS011;41131;42.990;21.954;2023-07-31T01:11:27;11.95;;;8.85;;
55268;SDS011;41131;42.990;21.954;2023-07-31T01:13:54;13.10;;;9.30;;
55268;SDS011;41131;42.990;21.954;2023-07-31T01:16:20;12.50;;;8.98;;
55268;SDS011;41131;42.990;21.954;2023-07-31T01:18:46;15.20;;;9.52;;
55268;SDS011;41131;42.990;21.954;2023-07-31T01:26:57;10.43;;;9.20;;
55268;SDS011;41131;42.990;21.954;2023-07-31T01:29:43;10.40;;;9.18;;
55268;SDS011;41131;42.990;21.954;2023-07-31T01:32:17;10.75;;;9.73;;
55268;SDS011;41131;42.990;21.954;2023-07-31T01:34:44;13.15;;;9.98;;
55268;SDS011;41131;42.990;21.954;2023-07-31T01:37:12;15.15;;;10.18;;
55268;SDS011;41131;42.990;21.954;2023-07-31T01:39:37;14.13;;;9.60;;
55268;SDS011;41131;42.990;21.954;2023-07-31T01:42:03;13.35;;;10.55;;
55268;SDS011;41131;42.990;21.954;2023-07-31T01:44:29;15.18;;;9.93;;
55268;SDS011;41131;42.990;21.954;2023-07-31T01:46:55;11.93;;;9.75;;
55268;SDS011;41131;42.990;21.954;2023-07-31T01:49:20;14.73;;;10.20;;
55268;SDS011;41131;42.990;21.954;2023-07-31T01:51:46;12.73;;;10.32;;
55268;SDS011;41131;42.990;21.954;2023-07-31T01:54:12;12.88;;;10.55;;
55268;SDS011;41131;42.990;21.954;2023-07-31T01:56:37;12.23;;;9.90;;
55268;SDS011;41131;42.990;21.954;2023-07-31T01:59:03;12.88;;;9.07;;
55268;SDS011;41131;42.990;21.954;2023-07-31T02:01:29;15.93;;;9.52;;
55268;SDS011;41131;42.990;21.954;2023-07-31T02:03:54;17.48;;;9.70;;
55268;SDS011;41131;42.990;21.954;2023-07-31T02:06:20;16.02;;;8.93;;
55268;SDS011;41131;42.990;21.954;2023-07-31T02:08:47;16.45;;;10.07;;
55268;SDS011;41131;42.990;21.954;2023-07-31T02:11:14;12.95;;;9.45;;
55268;SDS011;41131;42.990;21.954;2023-07-31T02:13:40;15.02;;;9.35;;
55268;SDS011;41131;42.990;21.954;2023-07-31T02:16:06;15.50;;;9.95;;
55268;SDS011;41131;42.990;21.954;2023-07-31T02:18:32;15.63;;;9.30;;
55268;SDS011;41131;42.990;21.954;2023-07-31T02:20:58;12.20;;;10.00;;
55268;SDS011;41131;42.990;21.954;2023-07-31T02:23:24;15.02;;;9.88;;
55268;SDS011;41131;42.990;21.954;2023-07-31T02:25:50;14.25;;;10.18;;
55268;SDS011;41131;42.990;21.954;2023-07-31T02:28:16;15.02;;;10.63;;
55268;SDS011;41131;42.990;21.954;2023-07-31T02:30:45;17.83;;;11.00;;
55268;SDS011;41131;42.990;21.954;2023-07-31T02:33:11;12.73;;;10.25;;
55268;SDS011;41131;42.990;21.954;2023-07-31T02:35:37;15.20;;;11.32;;
55268;SDS011;41131;42.990;21.954;2023-07-31T02:38:03;15.75;;;11.23;;
55268;SDS011;41131;42.990;21.954;2023-07-31T02:40:29;14.02;;;11.73;;
55268;SDS011;41131;42.990;21.954;2023-07-31T02:43:00;16.47;;;12.60;;
55268;SDS011;41131;42.990;21.954;2023-07-31T02:45:26;15.10;;;11.95;;
55268;SDS011;41131;42.990;21.954;2023-07-31T02:47:52;13.50;;;12.20;;
55268;SDS011;41131;42.990;21.954;2023-07-31T02:50:18;13.38;;;11.98;;
55268;SDS011;41131;42.990;21.954;2023-07-31T02:52:44;14.02;;;11.93;;
55268;SDS011;41131;42.990;21.954;2023-07-31T02:55:10;13.05;;;11.80;;
55268;SDS011;41131;42.990;21.954;2023-07-31T02:57:36;11.77;;;10.52;;
55268;SDS011;41131;42.990;21.954;2023-07-31T03:00:05;12.60;;;11.05;;
55268;SDS011;41131;42.990;21.954;2023-07-31T03:02:31;13.75;;;10.95;;
55268;SDS011;41131;42.990;21.954;2023-07-31T03:04:57;18.90;;;11.07;;
55268;SDS011;41131;42.990;21.954;2023-07-31T03:07:23;14.43;;;11.02;;
55268;SDS011;41131;42.990;21.954;2023-07-31T03:09:49;13.93;;;12.32;;
55268;SDS011;41131;42.990;21.954;2023-07-31T03:12:14;12.85;;;11.55;;
55268;SDS011;41131;42.990;21.954;2023-07-31T03:14:40;15.60;;;11.63;;
55268;SDS011;41131;42.990;21.954;2023-07-31T03:17:06;15.50;;;10.70;;
55268;SDS011;41131;42.990;21.954;2023-07-31T03:19:31;16.48;;;11.27;;
55268;SDS011;41131;42.990;21.954;2023-07-31T03:21:58;11.15;;;9.60;;
55268;SDS011;41131;42.990;21.954;2023-07-31T03:24:24;14.77;;;9.98;;
55268;SDS011;41131;42.990;21.954;2023-07-31T03:26:50;12.02;;;9.15;;
55268;SDS011;41131;42.990;21.954;2023-07-31T03:29:16;12.48;;;9.50;;
55268;SDS011;41131;42.990;21.954;2023-07-31T03:31:41;12.27;;;9.65;;
55268;SDS011;41131;42.990;21.954;2023-07-31T03:34:07;11.07;;;9.60;;
55268;SDS011;41131;42.990;21.954;2023-07-31T03:36:33;16.13;;;8.70;;
55268;SDS011;41131;42.990;21.954;2023-07-31T03:38:59;12.57;;;8.18;;
55268;SDS011;41131;42.990;21.954;2023-07-31T03:41:24;13.48;;;8.35;;
55268;SDS011;41131;42.990;21.954;2023-07-31T03:43:50;11.48;;;8.52;;
55268;SDS011;41131;42.990;21.954;2023-07-31T03:46:17;13.63;;;8.07;;
55268;SDS011;41131;42.990;21.954;2023-07-31T03:48:43;14.70;;;8.10;;
55268;SDS011;41131;42.990;21.954;2023-07-31T03:51:08;14.48;;;7.72;;
55268;SDS011;41131;42.990;21.954;2023-07-31T03:53:34;10.40;;;7.65;;
55268;SDS011;41131;42.990;21.954;2023-07-31T03:56:00;14.05;;;8.55;;
55268;SDS011;41131;42.990;21.954;2023-07-31T03:58:25;17.63;;;8.88;;
55268;SDS011;41131;42.990;21.954;2023-07-31T04:00:51;17.70;;;8.52;;
55268;SDS011;41131;42.990;21.954;2023-07-31T04:03:17;10.13;;;7.50;;
55268;SDS011;41131;42.990;21.954;2023-07-31T04:05:43;14.10;;;8.02;;
55268;SDS011;41131;42.990;21.954;2023-07-31T04:08:09;13.95;;;7.78;;
55268;SDS011;41131;42.990;21.954;2023-07-31T04:10:34;15.82;;;8.55;;
55268;SDS011;41131;42.990;21.954;2023-07-31T04:13:00;10.85;;;8.98;;
55268;SDS011;41131;42.990;21.954;2023-07-31T04:15:26;18.75;;;9.18;;
55268;SDS011;41131;42.990;21.954;2023-07-31T04:17:51;13.52;;;8.57;;
55268;SDS011;41131;42.990;21.954;2023-07-31T04:20:17;12.15;;;8.65;;
55268;SDS011;41131;42.990;21.954;2023-07-31T04:22:43;11.52;;;8.40;;
55268;SDS011;41131;42.990;21.954;2023-07-31T04:25:09;14.05;;;9.07;;
55268;SDS011;41131;42.990;21.954;2023-07-31T04:27:34;16.73;;;9.15;;
55268;SDS011;41131;42.990;21.954;2023-07-31T04:30:00;10.52;;;9.43;;
55268;SDS011;41131;42.990;21.954;2023-07-31T04:32:25;11.35;;;9.27;;
55268;SDS011;41131;42.990;21.954;2023-07-31T04:34:52;11.85;;;9.85;;
55268;SDS011;41131;42.990;21.954;2023-07-31T04:37:17;14.75;;;10.18;;
55268;SDS011;41131;42.990;21.954;2023-07-31T04:39:43;14.52;;;10.65;;
55268;SDS011;41131;42.990;21.954;2023-07-31T04:42:09;15.32;;;11.25;;
55268;SDS011;41131;42.990;21.954;2023-07-31T04:44:34;13.02;;;9.90;;
55268;SDS011;41131;42.990;21.954;2023-07-31T04:47:00;11.15;;;9.85;;
55268;SDS011;41131;42.990;21.954;2023-07-31T04:49:27;11.73;;;9.88;;
55268;SDS011;41131;42.990;21.954;2023-07-31T04:51:53;13.23;;;10.25;;
55268;SDS011;41131;42.990;21.954;2023-07-31T04:54:18;14.32;;;11.20;;
55268;SDS011;41131;42.990;21.954;2023-07-31T04:56:44;17.27;;;10.77;;
55268;SDS011;41131;42.990;21.954;2023-07-31T04:59:10;12.20;;;10.07;;
55268;SDS011;41131;42.990;21.954;2023-07-31T05:01:35;14.30;;;11.10;;
55268;SDS011;41131;42.990;21.954;2023-07-31T05:04:01;12.23;;;10.88;;
55268;SDS011;41131;42.990;21.954;2023-07-31T05:06:27;13.85;;;11.27;;
55268;SDS011;41131;42.990;21.954;2023-07-31T05:08:53;13.32;;;10.90;;
55268;SDS011;41131;42.990;21.954;2023-07-31T05:11:18;12.82;;;10.75;;
55268;SDS011;41131;42.990;21.954;2023-07-31T05:13:44;13.02;;;11.23;;
55268;SDS011;41131;42.990;21.954;2023-07-31T05:16:10;12.35;;;11.07;;
55268;SDS011;41131;42.990;21.954;2023-07-31T05:18:35;18.25;;;11.75;;
55268;SDS011;41131;42.990;21.954;2023-07-31T05:21:01;13.35;;;11.50;;
55268;SDS011;41131;42.990;21.954;2023-07-31T05:23:27;15.23;;;12.15;;
55268;SDS011;41131;42.990;21.954;2023-07-31T05:25:52;16.95;;;12.48;;
55268;SDS011;41131;42.990;21.954;2023-07-31T05:28:18;24.95;;;13.50;;
55268;SDS011;41131;42.990;21.954;2023-07-31T05:30:46;16.80;;;14.95;;
55268;SDS011;41131;42.990;21.954;2023-07-31T05:33:12;18.95;;;15.90;;
55268;SDS011;41131;42.990;21.954;2023-07-31T05:35:37;16.95;;;15.25;;
55268;SDS011;41131;42.990;21.954;2023-07-31T05:38:03;18.67;;;15.48;;
55268;SDS011;41131;42.990;21.954;2023-07-31T05:40:31;18.00;;;15.60;;
55268;SDS011;41131;42.990;21.954;2023-07-31T05:42:58;19.30;;;15.55;;
55268;SDS011;41131;42.990;21.954;2023-07-31T05:45:25;16.63;;;15.02;;
55268;SDS011;41131;42.990;21.954;2023-07-31T05:47:50;22.70;;;16.05;;
55268;SDS011;41131;42.990;21.954;2023-07-31T05:50:16;18.35;;;15.25;;
55268;SDS011;41131;42.990;21.954;2023-07-31T05:52:42;17.20;;;15.45;;
55268;SDS011;41131;42.990;21.954;2023-07-31T05:55:07;17.35;;;15.55;;
55268;SDS011;41131;42.990;21.954;2023-07-31T05:57:33;18.00;;;16.08;;
55268;SDS011;41131;42.990;21.954;2023-07-31T05:59:59;18.80;;;16.83;;
55268;SDS011;41131;42.990;21.954;2023-07-31T06:02:25;26.25;;;17.13;;
55268;SDS011;41131;42.990;21.954;2023-07-31T06:04:51;19.65;;;17.08;;
55268;SDS011;41131;42.990;21.954;2023-07-31T06:07:17;19.38;;;16.70;;
55268;SDS011;41131;42.990;21.954;2023-07-31T06:09:44;18.20;;;16.08;;
55268;SDS011;41131;42.990;21.954;2023-07-31T06:12:10;23.02;;;16.67;;
55268;SDS011;41131;42.990;21.954;2023-07-31T06:14:36;21.02;;;15.88;;
55268;SDS011;41131;42.990;21.954;2023-07-31T06:17:02;21.40;;;17.35;;
55268;SDS011;41131;42.990;21.954;2023-07-31T06:19:28;17.77;;;16.08;;
55268;SDS011;41131;42.990;21.954;2023-07-31T06:21:54;18.13;;;16.23;;
55268;SDS011;41131;42.990;21.954;2023-07-31T06:24:20;18.30;;;16.52;;
55268;SDS011;41131;42.990;21.954;2023-07-31T06:26:47;20.27;;;17.58;;
55268;SDS011;41131;42.990;21.954;2023-07-31T06:29:13;20.88;;;18.63;;
55268;SDS011;41131;42.990;21.954;2023-07-31T06:31:40;20.60;;;18.00;;
55268;SDS011;41131;42.990;21.954;2023-07-31T06:34:06;20.20;;;18.23;;
55268;SDS011;41131;42.990;21.954;2023-07-31T06:36:32;21.73;;;17.88;;
55268;SDS011;41131;42.990;21.954;2023-07-31T06:38:58;21.00;;;18.35;;
55268;SDS011;41131;42.990;21.954;2023-07-31T06:41:24;20.48;;;18.42;;
55268;SDS011;41131;42.990;21.954;2023-07-31T06:43:50;20.75;;;18.80;;
55268;SDS011;41131;42.990;21.954;2023-07-31T06:46:16;20.90;;;18.90;;
55268;SDS011;41131;42.990;21.954;2023-07-31T06:48:42;22.52;;;19.33;;
55268;SDS011;41131;42.990;21.954;2023-07-31T06:51:09;20.50;;;18.60;;
55268;SDS011;41131;42.990;21.954;2023-07-31T06:53:35;19.08;;;17.08;;
55268;SDS011;41131;42.990;21.954;2023-07-31T06:56:01;17.88;;;16.17;;
55268;SDS011;41131;42.990;21.954;2023-07-31T06:58:27;19.15;;;17.35;;
55268;SDS011;41131;42.990;21.954;2023-07-31T07:00:53;20.27;;;18.40;;
55268;SDS011;41131;42.990;21.954;2023-07-31T07:03:19;18.88;;;17.10;;
55268;SDS011;41131;42.990;21.954;2023-07-31T07:05:45;19.25;;;17.42;;
55268;SDS011;41131;42.990;21.954;2023-07-31T07:08:11;18.58;;;16.75;;
55268;SDS011;41131;42.990;21.954;2023-07-31T07:10:37;17.38;;;15.68;;
55268;SDS011;41131;42.990;21.954;2023-07-31T07:13:03;17.58;;;15.80;;
55268;SDS011;41131;42.990;21.954;2023-07-31T07:15:30;17.52;;;15.82;;
55268;SDS011;41131;42.990;21.954;2023-07-31T07:17:56;17.20;;;15.40;;
55268;SDS011;41131;42.990;21.954;2023-07-31T07:20:22;18.25;;;16.17;;
55268;SDS011;41131;42.990;21.954;2023-07-31T07:22:48;18.17;;;15.98;;
55268;SDS011;41131;42.990;21.954;2023-07-31T07:25:14;18.70;;;16.92;;
55268;SDS011;41131;42.990;21.954;2023-07-31T07:27:40;16.40;;;14.88;;
55268;SDS011;41131;42.990;21.954;2023-07-31T07:30:06;16.98;;;13.65;;
55268;SDS011;41131;42.990;21.954;2023-07-31T07:32:32;18.70;;;13.60;;
55268;SDS011;41131;42.990;21.954;2023-07-31T07:34:58;15.80;;;14.40;;
55268;SDS011;41131;42.990;21.954;2023-07-31T07:37:24;16.20;;;14.80;;
55268;SDS011;41131;42.990;21.954;2023-07-31T07:39:50;16.17;;;14.70;;
55268;SDS011;41131;42.990;21.954;2023-07-31T07:42:16;16.00;;;14.48;;
55268;SDS011;41131;42.990;21.954;2023-07-31T07:44:42;14.35;;;13.05;;
55268;SDS011;41131;42.990;21.954;2023-07-31T07:47:08;15.18;;;13.65;;
55268;SDS011;41131;42.990;21.954;2023-07-31T07:49:35;14.55;;;12.90;;
55268;SDS011;41131;42.990;21.954;2023-07-31T07:52:01;13.75;;;12.52;;
55268;SDS011;41131;42.990;21.954;2023-07-31T07:54:27;13.73;;;12.40;;
55268;SDS011;41131;42.990;21.954;2023-07-31T07:56:53;12.65;;;11.35;;
55268;SDS011;41131;42.990;21.954;2023-07-31T07:59:20;12.60;;;11.35;;
55268;SDS011;41131;42.990;21.954;2023-07-31T08:01:46;12.45;;;9.90;;
55268;SDS011;41131;42.990;21.954;2023-07-31T08:04:12;13.02;;;10.75;;
55268;SDS011;41131;42.990;21.954;2023-07-31T08:06:38;11.13;;;9.95;;
55268;SDS011;41131;42.990;21.954;2023-07-31T08:09:04;11.32;;;10.23;;
55268;SDS011;41131;42.990;21.954;2023-07-31T08:11:34;9.10;;;8.30;;
55268;SDS011;41131;42.990;21.954;2023-07-31T08:14:00;9.60;;;8.70;;
55268;SDS011;41131;42.990;21.954;2023-07-31T08:16:26;10.05;;;9.05;;
55268;SDS011;41131;42.990;21.954;2023-07-31T08:18:52;10.55;;;9.55;;
55268;SDS011;41131;42.990;21.954;2023-07-31T08:21:18;15.32;;;9.20;;
55268;SDS011;41131;42.990;21.954;2023-07-31T08:23:45;9.48;;;8.38;;
55268;SDS011;41131;42.990;21.954;2023-07-31T08:26:14;10.43;;;8.38;;
55268;SDS011;41131;42.990;21.954;2023-07-31T08:28:40;10.20;;;8.63;;
55268;SDS011;41131;42.990;21.954;2023-07-31T08:31:06;11.60;;;9.82;;
55268;SDS011;41131;42.990;21.954;2023-07-31T08:33:32;9.07;;;7.28;;
55268;SDS011;41131;42.990;21.954;2023-07-31T08:35:58;7.70;;;6.97;;
55268;SDS011;41131;42.990;21.954;2023-07-31T08:38:26;10.70;;;7.40;;
55268;SDS011;41131;42.990;21.954;2023-07-31T08:40:52;9.77;;;7.50;;
55268;SDS011;41131;42.990;21.954;2023-07-31T08:43:19;9.25;;;8.35;;
55268;SDS011;41131;42.990;21.954;2023-07-31T08:45:46;11.68;;;8.50;;
55268;SDS011;41131;42.990;21.954;2023-07-31T08:48:12;8.40;;;7.50;;
55268;SDS011;41131;42.990;21.954;2023-07-31T08:50:39;9.73;;;7.90;;
55268;SDS011;41131;42.990;21.954;2023-07-31T08:53:05;10.90;;;8.00;;
55268;SDS011;41131;42.990;21.954;2023-07-31T08:55:32;9.48;;;8.27;;
55268;SDS011;41131;42.990;21.954;2023-07-31T08:57:58;8.90;;;8.10;;
55268;SDS011;41131;42.990;21.954;2023-07-31T09:00:24;11.38;;;8.50;;
55268;SDS011;41131;42.990;21.954;2023-07-31T09:05:23;9.55;;;8.52;;
55268;SDS011;41131;42.990;21.954;2023-07-31T09:07:49;11.85;;;9.23;;
55268;SDS011;41131;42.990;21.954;2023-07-31T09:10:15;10.55;;;9.20;;
55268;SDS011;41131;42.990;21.954;2023-07-31T09:12:42;16.08;;;9.80;;
55268;SDS011;41131;42.990;21.954;2023-07-31T09:15:08;11.85;;;9.15;;
55268;SDS011;41131;42.990;21.954;2023-07-31T09:17:35;10.48;;;9.48;;
55268;SDS011;41131;42.990;21.954;2023-07-31T09:20:20;10.77;;;9.15;;
55268;SDS011;41131;42.990;21.954;2023-07-31T09:22:47;9.70;;;8.70;;
55268;SDS011;41131;42.990;21.954;2023-07-31T09:30:49;9.77;;;8.77;;
55268;SDS011;41131;42.990;21.954;2023-07-31T09:33:15;15.95;;;10.23;;
55268;SDS011;41131;42.990;21.954;2023-07-31T09:35:42;13.80;;;11.07;;
55268;SDS011;41131;42.990;21.954;2023-07-31T09:38:10;12.60;;;8.70;;
55268;SDS011;41131;42.990;21.954;2023-07-31T09:40:37;15.70;;;13.65;;
55268;SDS011;41131;42.990;21.954;2023-07-31T09:43:05;13.45;;;11.00;;
55268;SDS011;41131;42.990;21.954;2023-07-31T09:45:33;10.52;;;9.52;;
55268;SDS011;41131;42.990;21.954;2023-07-31T09:47:59;12.15;;;9.02;;
55268;SDS011;41131;42.990;21.954;2023-07-31T09:50:25;12.57;;;9.43;;
55268;SDS011;41131;42.990;21.954;2023-07-31T09:52:51;9.13;;;8.32;;
55268;SDS011;41131;42.990;21.954;2023-07-31T09:55:18;8.85;;;7.93;;
55268;SDS011;41131;42.990;21.954;2023-07-31T09:57:45;11.38;;;9.70;;
55268;SDS011;41131;42.990;21.954;2023-07-31T10:00:12;10.18;;;9.13;;
55268;SDS011;41131;42.990;21.954;2023-07-31T10:02:38;10.63;;;8.85;;
55268;SDS011;41131;42.990;21.954;2023-07-31T10:05:05;11.05;;;9.65;;
55268;SDS011;41131;42.990;21.954;2023-07-31T10:07:38;9.88;;;8.93;;
55268;SDS011;41131;42.990;21.954;2023-07-31T10:10:05;12.50;;;9.05;;
55268;SDS011;41131;42.990;21.954;2023-07-31T10:12:33;10.88;;;9.88;;
55268;SDS011;41131;42.990;21.954;2023-07-31T10:14:59;10.07;;;9.05;;
55268;SDS011;41131;42.990;21.954;2023-07-31T10:17:26;10.57;;;9.55;;
55268;SDS011;41131;42.990;21.954;2023-07-31T10:19:52;11.55;;;9.38;;
55268;SDS011;41131;42.990;21.954;2023-07-31T10:22:19;11.95;;;9.50;;
55268;SDS011;41131;42.990;21.954;2023-07-31T10:24:46;13.32;;;10.88;;
55268;SDS011;41131;42.990;21.954;2023-07-31T10:27:12;11.52;;;10.52;;
55268;SDS011;41131;42.990;21.954;2023-07-31T10:29:38;11.15;;;10.15;;
55268;SDS011;41131;42.990;21.954;2023-07-31T10:32:05;12.05;;;10.77;;
55268;SDS011;41131;42.990;21.954;2023-07-31T10:34:34;12.43;;;10.57;;
55268;SDS011;41131;42.990;21.954;2023-07-31T10:39:45;13.35;;;11.85;;
55268;SDS011;41131;42.990;21.954;2023-07-31T10:42:20;12.90;;;11.60;;
55268;SDS011;41131;42.990;21.954;2023-07-31T10:44:55;21.33;;;12.25;;
55268;SDS011;41131;42.990;21.954;2023-07-31T10:47:22;11.80;;;10.15;;
55268;SDS011;41131;42.990;21.954;2023-07-31T10:49:48;16.17;;;11.07;;
55268;SDS011;41131;42.990;21.954;2023-07-31T10:52:16;12.38;;;11.07;;
55268;SDS011;41131;42.990;21.954;2023-07-31T10:54:48;11.02;;;10.02;;
55268;SDS011;41131;42.990;21.954;2023-07-31T10:57:20;11.57;;;9.75;;
55268;SDS011;41131;42.990;21.954;2023-07-31T10:59:47;11.98;;;9.60;;
55268;SDS011;41131;42.990;21.954;2023-07-31T11:02:26;9.13;;;8.23;;
55268;SDS011;41131;42.990;21.954;2023-07-31T11:05:10;8.85;;;7.95;;
55268;SDS011;41131;42.990;21.954;2023-07-31T11:07:48;11.63;;;8.05;;
55268;SDS011;41131;42.990;21.954;2023-07-31T11:10:18;9.02;;;8.20;;
55268;SDS011;41131;42.990;21.954;2023-07-31T11:12:47;10.90;;;8.75;;
55268;SDS011;41131;42.990;21.954;2023-07-31T11:15:13;8.88;;;8.07;;
55268;SDS011;41131;42.990;21.954;2023-07-31T11:17:39;22.98;;;9.20;;
55268;SDS011;41131;42.990;21.954;2023-07-31T11:20:06;12.57;;;6.63;;
55268;SDS011;41131;42.990;21.954;2023-07-31T11:22:35;10.05;;;6.97;;
55268;SDS011;41131;42.990;21.954;2023-07-31T11:25:02;7.70;;;6.88;;
55268;SDS011;41131;42.990;21.954;2023-07-31T11:27:29;11.68;;;7.13;;
55268;SDS011;41131;42.990;21.954;2023-07-31T11:30:01;8.45;;;6.88;;
55268;SDS011;41131;42.990;21.954;2023-07-31T11:32:27;9.00;;;6.40;;
55268;SDS011;41131;42.990;21.954;2023-07-31T11:34:54;8.73;;;5.65;;
55268;SDS011;41131;42.990;21.954;2023-07-31T11:37:20;7.25;;;5.03;;
55268;SDS011;41131;42.990;21.954;2023-07-31T11:39:59;7.18;;;4.60;;
55268;SDS011;41131;42.990;21.954;2023-07-31T11:42:25;6.20;;;4.15;;
55268;SDS011;41131;42.990;21.954;2023-07-31T11:44:51;5.75;;;3.72;;
55268;SDS011;41131;42.990;21.954;2023-07-31T11:47:17;7.03;;;3.97;;
55268;SDS011;41131;42.990;21.954;2023-07-31T11:49:43;6.88;;;4.00;;
55268;SDS011;41131;42.990;21.954;2023-07-31T11:52:10;23.35;;;6.07;;
55268;SDS011;41131;42.990;21.954;2023-07-31T11:54:36;7.80;;;4.57;;
55268;SDS011;41131;42.990;21.954;2023-07-31T11:57:03;12.60;;;5.68;;
55268;SDS011;41131;42.990;21.954;2023-07-31T11:59:30;13.82;;;7.45;;
55268;SDS011;41131;42.990;21.954;2023-07-31T12:01:56;8.90;;;4.55;;
55268;SDS011;41131;42.990;21.954;2023-07-31T12:04:23;8.82;;;3.95;;
55268;SDS011;41131;42.990;21.954;2023-07-31T12:06:49;12.07;;;4.93;;
55268;SDS011;41131;42.990;21.954;2023-07-31T12:09:18;4.30;;;3.67;;
55268;SDS011;41131;42.990;21.954;2023-07-31T12:11:45;5.57;;;3.80;;
55268;SDS011;41131;42.990;21.954;2023-07-31T12:14:19;6.55;;;3.38;;
55268;SDS011;41131;42.990;21.954;2023-07-31T12:16:46;9.80;;;4.15;;
55268;SDS011;41131;42.990;21.954;2023-07-31T12:19:12;7.22;;;4.25;;
55268;SDS011;41131;42.990;21.954;2023-07-31T12:21:38;5.72;;;3.47;;
55268;SDS011;41131;42.990;21.954;2023-07-31T12:24:04;5.55;;;3.42;;
55268;SDS011;41131;42.990;21.954;2023-07-31T12:26:34;5.20;;;3.60;;
55268;SDS011;41131;42.990;21.954;2023-07-31T12:29:00;6.68;;;3.45;;
55268;SDS011;41131;42.990;21.954;2023-07-31T12:31:27;5.15;;;3.45;;
55268;SDS011;41131;42.990;21.954;2023-07-31T12:33:54;6.93;;;3.55;;
55268;SDS011;41131;42.990;21.954;2023-07-31T12:36:22;5.78;;;3.30;;
55268;SDS011;41131;42.990;21.954;2023-07-31T12:38:52;3.30;;;3.00;;
55268;SDS011;41131;42.990;21.954;2023-07-31T12:41:18;5.57;;;3.50;;
55268;SDS011;41131;42.990;21.954;2023-07-31T12:43:44;8.60;;;3.80;;
55268;SDS011;41131;42.990;21.954;2023-07-31T12:46:11;8.20;;;4.25;;
55268;SDS011;41131;42.990;21.954;2023-07-31T12:48:37;4.75;;;3.70;;
55268;SDS011;41131;42.990;21.954;2023-07-31T12:51:04;6.40;;;3.40;;
55268;SDS011;41131;42.990;21.954;2023-07-31T12:53:31;5.85;;;3.25;;
55268;SDS011;41131;42.990;21.954;2023-07-31T12:55:58;4.72;;;3.13;;
55268;SDS011;41131;42.990;21.954;2023-07-31T12:58:24;8.02;;;3.35;;
55268;SDS011;41131;42.990;21.954;2023-07-31T13:00:50;5.95;;;3.25;;
55268;SDS011;41131;42.990;21.954;2023-07-31T13:03:16;6.22;;;3.22;;
55268;SDS011;41131;42.990;21.954;2023-07-31T13:05:42;5.82;;;3.13;;
55268;SDS011;41131;42.990;21.954;2023-07-31T13:08:08;6.22;;;2.80;;
55268;SDS011;41131;42.990;21.954;2023-07-31T13:10:34;5.65;;;2.90;;
55268;SDS011;41131;42.990;21.954;2023-07-31T13:13:00;9.13;;;2.83;;
55268;SDS011;41131;42.990;21.954;2023-07-31T13:15:27;3.38;;;2.47;;
55268;SDS011;41131;42.990;21.954;2023-07-31T13:17:53;12.15;;;3.28;;
55268;SDS011;41131;42.990;21.954;2023-07-31T13:20:19;4.97;;;2.72;;
55268;SDS011;41131;42.990;21.954;2023-07-31T13:22:45;5.63;;;2.80;;
55268;SDS011;41131;42.990;21.954;2023-07-31T13:25:11;5.10;;;2.78;;
55268;SDS011;41131;42.990;21.954;2023-07-31T13:27:37;8.27;;;4.55;;
55268;SDS011;41131;42.990;21.954;2023-07-31T13:30:03;3.88;;;2.20;;
55268;SDS011;41131;42.990;21.954;2023-07-31T13:32:29;6.05;;;2.72;;
55268;SDS011;41131;42.990;21.954;2023-07-31T13:34:55;4.60;;;2.53;;
55268;SDS011;41131;42.990;21.954;2023-07-31T13:37:21;5.43;;;2.83;;
55268;SDS011;41131;42.990;21.954;2023-07-31T13:39:47;4.13;;;2.70;;
55268;SDS011;41131;42.990;21.954;2023-07-31T13:42:13;6.03;;;3.10;;
55268;SDS011;41131;42.990;21.954;2023-07-31T13:44:40;4.72;;;2.80;;
55268;SDS011;41131;42.990;21.954;2023-07-31T13:47:07;5.13;;;2.88;;
55268;SDS011;41131;42.990;21.954;2023-07-31T13:49:34;3.70;;;2.83;;
55268;SDS011;41131;42.990;21.954;2023-07-31T13:52:01;7.03;;;2.97;;
55268;SDS011;41131;42.990;21.954;2023-07-31T13:54:27;4.95;;;2.90;;
55268;SDS011;41131;42.990;21.954;2023-07-31T13:56:53;7.47;;;3.10;;
55268;SDS011;41131;42.990;21.954;2023-07-31T13:59:19;6.43;;;3.05;;
55268;SDS011;41131;42.990;21.954;2023-07-31T14:01:46;4.78;;;3.40;;
55268;SDS011;41131;42.990;21.954;2023-07-31T14:04:12;3.97;;;3.13;;
55268;SDS011;41131;42.990;21.954;2023-07-31T14:06:38;5.38;;;3.80;;
55268;SDS011;41131;42.990;21.954;2023-07-31T14:09:05;5.20;;;3.40;;
55268;SDS011;41131;42.990;21.954;2023-07-31T14:11:31;6.40;;;3.67;;
55268;SDS011;41131;42.990;21.954;2023-07-31T14:13:58;5.75;;;3.78;;
55268;SDS011;41131;42.990;21.954;2023-07-31T14:16:24;9.45;;;3.97;;
55268;SDS011;41131;42.990;21.954;2023-07-31T14:18:50;5.70;;;3.30;;
55268;SDS011;41131;42.990;21.954;2023-07-31T14:21:16;5.53;;;3.35;;
55268;SDS011;41131;42.990;21.954;2023-07-31T14:23:44;4.95;;;3.00;;
55268;SDS011;41131;42.990;21.954;2023-07-31T14:26:10;4.00;;;3.17;;
55268;SDS011;41131;42.990;21.954;2023-07-31T14:28:36;7.60;;;3.38;;
55268;SDS011;41131;42.990;21.954;2023-07-31T14:31:02;5.13;;;3.80;;
55268;SDS011;41131;42.990;21.954;2023-07-31T14:33:28;4.30;;;3.10;;
55268;SDS011;41131;42.990;21.954;2023-07-31T14:35:54;7.00;;;3.50;;
55268;SDS011;41131;42.990;21.954;2023-07-31T14:38:20;5.15;;;2.63;;